sensor_id;sensor_type;location;lat;lon;timestamp;P1;durP1;ratioP1;P2;durP2;ratioP2
39782;SDS011;25462;51.164;17.100;2023-04-24T00:02:56;50.80;;;26.00;;
39782;SDS011;25462;51.164;17.100;2023-04-24T00:08:01;165.70;;;77.50;;
39782;SDS011;25462;51.164;17.100;2023-04-24T00:13:05;67.60;;;31.90;;
39782;SDS011;25462;51.164;17.100;2023-04-24T00:18:08;118.30;;;52.70;;
39782;SDS011;25462;51.164;17.100;2023-04-24T00:23:12;222.30;;;76.20;;
39782;SDS011;25462;51.164;17.100;2023-04-24T00:28:16;123.40;;;45.60;;
39782;SDS011;25462;51.164;17.100;2023-04-24T00:33:19;82.40;;;37.20;;
39782;SDS011;25462;51.164;17.100;2023-04-24T00:38:23;51.40;;;31.80;;
39782;SDS011;25462;51.164;17.100;2023-04-24T00:43:27;25.30;;;17.20;;
39782;SDS011;25462;51.164;17.100;2023-04-24T00:48:31;18.80;;;11.80;;
39782;SDS011;25462;51.164;17.100;2023-04-24T00:53:35;15.50;;;11.20;;
39782;SDS011;25462;51.164;17.100;2023-04-24T00:58:38;15.70;;;10.10;;
39782;SDS011;25462;51.164;17.100;2023-04-24T01:03:43;17.10;;;11.30;;
39782;SDS011;25462;51.164;17.100;2023-04-24T01:08:48;17.20;;;11.60;;
39782;SDS011;25462;51.164;17.100;2023-04-24T01:13:52;16.30;;;12.30;;
39782;SDS011;25462;51.164;17.100;2023-04-24T01:18:55;18.20;;;13.30;;
39782;SDS011;25462;51.164;17.100;2023-04-24T01:23:59;17.60;;;12.40;;
39782;SDS011;25462;51.164;17.100;2023-04-24T01:29:03;16.00;;;11.80;;
39782;SDS011;25462;51.164;17.100;2023-04-24T01:34:07;17.60;;;12.10;;
39782;SDS011;25462;51.164;17.100;2023-04-24T01:39:11;17.20;;;12.90;;
39782;SDS011;25462;51.164;17.100;2023-04-24T01:44:16;16.60;;;12.40;;
39782;SDS011;25462;51.164;17.100;2023-04-24T01:49:21;17.40;;;12.40;;
39782;SDS011;25462;51.164;17.100;2023-04-24T01:54:25;18.60;;;12.30;;
39782;SDS011;25462;51.164;17.100;2023-04-24T01:59:31;18.40;;;12.90;;
39782;SDS011;25462;51.164;17.100;2023-04-24T02:04:36;16.60;;;11.70;;
39782;SDS011;25462;51.164;17.100;2023-04-24T02:09:40;17.30;;;11.90;;
39782;SDS011;25462;51.164;17.100;2023-04-24T02:14:45;16.20;;;12.10;;
39782;SDS011;25462;51.164;17.100;2023-04-24T02:19:48;18.70;;;13.70;;
39782;SDS011;25462;51.164;17.100;2023-04-24T02:24:52;17.50;;;12.50;;
39782;SDS011;25462;51.164;17.100;2023-04-24T02:29:56;18.30;;;12.80;;
39782;SDS011;25462;51.164;17.100;2023-04-24T02:35:00;17.40;;;13.10;;
39782;SDS011;25462;51.164;17.100;2023-04-24T02:40:04;17.60;;;13.70;;
39782;SDS011;25462;51.164;17.100;2023-04-24T02:45:09;17.20;;;14.00;;
39782;SDS011;25462;51.164;17.100;2023-04-24T02:50:13;24.30;;;18.90;;
39782;SDS011;25462;51.164;17.100;2023-04-24T02:55:17;79.10;;;37.50;;
39782;SDS011;25462;51.164;17.100;2023-04-24T03:00:21;135.50;;;61.30;;
39782;SDS011;25462;51.164;17.100;2023-04-24T03:05:25;72.40;;;37.80;;
39782;SDS011;25462;51.164;17.100;2023-04-24T03:10:28;160.70;;;77.80;;
39782;SDS011;25462;51.164;17.100;2023-04-24T03:15:32;33.40;;;21.70;;
39782;SDS011;25462;51.164;17.100;2023-04-24T03:20:36;26.10;;;19.60;;
39782;SDS011;25462;51.164;17.100;2023-04-24T03:25:41;111.00;;;65.20;;
39782;SDS011;25462;51.164;17.100;2023-04-24T03:30:46;181.50;;;109.60;;
39782;SDS011;25462;51.164;17.100;2023-04-24T03:35:51;63.30;;;46.10;;
39782;SDS011;25462;51.164;17.100;2023-04-24T03:40:56;192.00;;;142.40;;
39782;SDS011;25462;51.164;17.100;2023-04-24T03:46:13;67.10;;;51.20;;
39782;SDS011;25462;51.164;17.100;2023-04-24T03:51:21;74.80;;;57.20;;
39782;SDS011;25462;51.164;17.100;2023-04-24T03:56:28;63.40;;;49.10;;
39782;SDS011;25462;51.164;17.100;2023-04-24T04:01:32;24.00;;;19.80;;
39782;SDS011;25462;51.164;17.100;2023-04-24T04:06:49;27.20;;;17.80;;
39782;SDS011;25462;51.164;17.100;2023-04-24T04:11:54;24.00;;;16.90;;
39782;SDS011;25462;51.164;17.100;2023-04-24T04:16:58;20.40;;;15.70;;
39782;SDS011;25462;51.164;17.100;2023-04-24T04:22:02;20.90;;;16.90;;
39782;SDS011;25462;51.164;17.100;2023-04-24T04:27:17;20.70;;;16.30;;
39782;SDS011;25462;51.164;17.100;2023-04-24T04:32:34;21.80;;;15.00;;
39782;SDS011;25462;51.164;17.100;2023-04-24T04:37:39;21.80;;;16.20;;
39782;SDS011;25462;51.164;17.100;2023-04-24T04:43:18;19.60;;;14.30;;
39782;SDS011;25462;51.164;17.100;2023-04-24T04:48:26;23.60;;;13.90;;
39782;SDS011;25462;51.164;17.100;2023-04-24T04:53:33;16.60;;;13.20;;
39782;SDS011;25462;51.164;17.100;2023-04-24T04:58:38;20.90;;;14.00;;
39782;SDS011;25462;51.164;17.100;2023-04-24T05:03:45;18.20;;;13.50;;
39782;SDS011;25462;51.164;17.100;2023-04-24T05:08:50;18.90;;;13.50;;
39782;SDS011;25462;51.164;17.100;2023-04-24T05:14:08;19.70;;;12.00;;
39782;SDS011;25462;51.164;17.100;2023-04-24T05:19:14;20.00;;;10.40;;
39782;SDS011;25462;51.164;17.100;2023-04-24T05:24:20;15.80;;;10.80;;
39782;SDS011;25462;51.164;17.100;2023-04-24T05:29:43;18.60;;;9.60;;
39782;SDS011;25462;51.164;17.100;2023-04-24T05:34:49;14.00;;;9.70;;
39782;SDS011;25462;51.164;17.100;2023-04-24T05:39:54;13.50;;;9.90;;
39782;SDS011;25462;51.164;17.100;2023-04-24T05:44:58;16.50;;;10.40;;
39782;SDS011;25462;51.164;17.100;2023-04-24T05:50:02;11.20;;;8.80;;
39782;SDS011;25462;51.164;17.100;2023-04-24T05:55:06;12.30;;;9.40;;
39782;SDS011;25462;51.164;17.100;2023-04-24T06:00:13;16.50;;;9.50;;
39782;SDS011;25462;51.164;17.100;2023-04-24T06:05:20;14.20;;;8.30;;
39782;SDS011;25462;51.164;17.100;2023-04-24T06:10:24;11.90;;;8.30;;
39782;SDS011;25462;51.164;17.100;2023-04-24T06:15:29;10.60;;;7.50;;
39782;SDS011;25462;51.164;17.100;2023-04-24T06:20:51;11.40;;;7.20;;
39782;SDS011;25462;51.164;17.100;2023-04-24T06:25:55;10.50;;;5.80;;
39782;SDS011;25462;51.164;17.100;2023-04-24T06:30:59;10.60;;;6.40;;
39782;SDS011;25462;51.164;17.100;2023-04-24T06:36:03;7.50;;;5.90;;
39782;SDS011;25462;51.164;17.100;2023-04-24T06:41:07;9.50;;;6.10;;
39782;SDS011;25462;51.164;17.100;2023-04-24T06:46:11;13.20;;;6.20;;
39782;SDS011;25462;51.164;17.100;2023-04-24T06:51:15;8.90;;;5.50;;
39782;SDS011;25462;51.164;17.100;2023-04-24T06:56:20;8.90;;;5.90;;
39782;SDS011;25462;51.164;17.100;2023-04-24T07:01:24;10.90;;;6.30;;
39782;SDS011;25462;51.164;17.100;2023-04-24T07:06:28;12.00;;;5.70;;
39782;SDS011;25462;51.164;17.100;2023-04-24T07:11:35;8.70;;;5.00;;
39782;SDS011;25462;51.164;17.100;2023-04-24T07:16:40;11.90;;;5.80;;
39782;SDS011;25462;51.164;17.100;2023-04-24T07:21:43;9.30;;;6.00;;
39782;SDS011;25462;51.164;17.100;2023-04-24T07:26:48;9.20;;;5.50;;
39782;SDS011;25462;51.164;17.100;2023-04-24T07:31:51;7.80;;;5.40;;
39782;SDS011;25462;51.164;17.100;2023-04-24T07:36:57;9.20;;;5.50;;
39782;SDS011;25462;51.164;17.100;2023-04-24T07:42:01;9.50;;;5.50;;
39782;SDS011;25462;51.164;17.100;2023-04-24T07:47:06;10.30;;;5.90;;
39782;SDS011;25462;51.164;17.100;2023-04-24T07:52:10;10.10;;;5.30;;
39782;SDS011;25462;51.164;17.100;2023-04-24T07:57:13;13.20;;;5.00;;
39782;SDS011;25462;51.164;17.100;2023-04-24T08:02:17;7.70;;;5.00;;
39782;SDS011;25462;51.164;17.100;2023-04-24T08:07:23;6.40;;;5.10;;
39782;SDS011;25462;51.164;17.100;2023-04-24T08:12:28;9.90;;;5.40;;
39782;SDS011;25462;51.164;17.100;2023-04-24T08:17:33;8.30;;;5.00;;
39782;SDS011;25462;51.164;17.100;2023-04-24T08:22:40;7.60;;;5.00;;
39782;SDS011;25462;51.164;17.100;2023-04-24T08:27:44;6.30;;;4.70;;
39782;SDS011;25462;51.164;17.100;2023-04-24T08:32:48;9.60;;;4.50;;
39782;SDS011;25462;51.164;17.100;2023-04-24T08:37:52;6.80;;;4.70;;
39782;SDS011;25462;51.164;17.100;2023-04-24T08:42:57;10.80;;;5.70;;
39782;SDS011;25462;51.164;17.100;2023-04-24T08:48:02;10.10;;;5.30;;
39782;SDS011;25462;51.164;17.100;2023-04-24T08:53:06;6.70;;;5.10;;
39782;SDS011;25462;51.164;17.100;2023-04-24T08:58:11;7.10;;;5.40;;
39782;SDS011;25462;51.164;17.100;2023-04-24T09:03:15;9.20;;;5.60;;
39782;SDS011;25462;51.164;17.100;2023-04-24T09:08:20;7.90;;;5.80;;
39782;SDS011;25462;51.164;17.100;2023-04-24T09:13:27;8.20;;;6.00;;
39782;SDS011;25462;51.164;17.100;2023-04-24T09:18:32;12.20;;;6.40;;
39782;SDS011;25462;51.164;17.100;2023-04-24T09:23:37;11.40;;;5.80;;
39782;SDS011;25462;51.164;17.100;2023-04-24T09:28:40;7.60;;;5.30;;
39782;SDS011;25462;51.164;17.100;2023-04-24T09:39:03;6.40;;;4.60;;
39782;SDS011;25462;51.164;17.100;2023-04-24T09:44:19;8.50;;;5.20;;
39782;SDS011;25462;51.164;17.100;2023-04-24T09:49:28;6.60;;;4.90;;
39782;SDS011;25462;51.164;17.100;2023-04-24T09:54:33;7.30;;;4.50;;
39782;SDS011;25462;51.164;17.100;2023-04-24T09:59:41;7.40;;;4.50;;
39782;SDS011;25462;51.164;17.100;2023-04-24T10:04:56;7.30;;;4.20;;
39782;SDS011;25462;51.164;17.100;2023-04-24T10:10:03;7.40;;;4.50;;
39782;SDS011;25462;51.164;17.100;2023-04-24T10:15:09;6.60;;;4.50;;
39782;SDS011;25462;51.164;17.100;2023-04-24T10:20:15;7.70;;;4.20;;
39782;SDS011;25462;51.164;17.100;2023-04-24T10:25:20;6.50;;;4.20;;
39782;SDS011;25462;51.164;17.100;2023-04-24T10:30:32;6.90;;;4.30;;
39782;SDS011;25462;51.164;17.100;2023-04-24T10:35:44;5.60;;;4.10;;
39782;SDS011;25462;51.164;17.100;2023-04-24T10:40:51;7.60;;;4.00;;
39782;SDS011;25462;51.164;17.100;2023-04-24T10:46:04;6.50;;;4.20;;
39782;SDS011;25462;51.164;17.100;2023-04-24T10:51:12;9.60;;;4.80;;
39782;SDS011;25462;51.164;17.100;2023-04-24T10:56:17;7.60;;;5.10;;
39782;SDS011;25462;51.164;17.100;2023-04-24T11:01:25;7.30;;;4.90;;
39782;SDS011;25462;51.164;17.100;2023-04-24T11:06:30;6.90;;;4.70;;
39782;SDS011;25462;51.164;17.100;2023-04-24T11:11:44;9.40;;;5.00;;
39782;SDS011;25462;51.164;17.100;2023-04-24T11:16:53;6.90;;;4.80;;
39782;SDS011;25462;51.164;17.100;2023-04-24T11:22:01;7.00;;;3.70;;
39782;SDS011;25462;51.164;17.100;2023-04-24T11:27:11;6.80;;;4.30;;
39782;SDS011;25462;51.164;17.100;2023-04-24T11:37:34;7.70;;;4.90;;
39782;SDS011;25462;51.164;17.100;2023-04-24T11:42:40;5.20;;;3.60;;
39782;SDS011;25462;51.164;17.100;2023-04-24T11:47:48;8.50;;;4.30;;
39782;SDS011;25462;51.164;17.100;2023-04-24T11:52:52;6.80;;;4.30;;
39782;SDS011;25462;51.164;17.100;2023-04-24T11:57:57;6.80;;;4.70;;
39782;SDS011;25462;51.164;17.100;2023-04-24T12:03:06;5.80;;;4.40;;
39782;SDS011;25462;51.164;17.100;2023-04-24T12:08:34;6.10;;;4.50;;
39782;SDS011;25462;51.164;17.100;2023-04-24T12:13:40;8.60;;;5.00;;
39782;SDS011;25462;51.164;17.100;2023-04-24T12:18:44;6.10;;;3.80;;
39782;SDS011;25462;51.164;17.100;2023-04-24T12:23:49;6.20;;;4.20;;
39782;SDS011;25462;51.164;17.100;2023-04-24T12:28:54;6.20;;;3.90;;
39782;SDS011;25462;51.164;17.100;2023-04-24T12:33:58;7.90;;;4.70;;
39782;SDS011;25462;51.164;17.100;2023-04-24T12:39:01;6.50;;;4.30;;
39782;SDS011;25462;51.164;17.100;2023-04-24T12:44:10;7.00;;;3.80;;
39782;SDS011;25462;51.164;17.100;2023-04-24T12:49:13;6.60;;;3.80;;
39782;SDS011;25462;51.164;17.100;2023-04-24T12:54:17;8.50;;;3.80;;
39782;SDS011;25462;51.164;17.100;2023-04-24T12:59:21;6.80;;;4.20;;
39782;SDS011;25462;51.164;17.100;2023-04-24T13:04:25;6.10;;;4.10;;
39782;SDS011;25462;51.164;17.100;2023-04-24T13:09:29;10.20;;;3.90;;
39782;SDS011;25462;51.164;17.100;2023-04-24T13:14:33;8.70;;;6.10;;
39782;SDS011;25462;51.164;17.100;2023-04-24T13:19:38;6.40;;;4.70;;
39782;SDS011;25462;51.164;17.100;2023-04-24T13:24:46;3.40;;;2.20;;
39782;SDS011;25462;51.164;17.100;2023-04-24T13:29:53;3.80;;;2.30;;
39782;SDS011;25462;51.164;17.100;2023-04-24T13:34:57;4.10;;;1.80;;
39782;SDS011;25462;51.164;17.100;2023-04-24T13:40:01;3.10;;;1.60;;
39782;SDS011;25462;51.164;17.100;2023-04-24T13:45:05;6.10;;;2.40;;
39782;SDS011;25462;51.164;17.100;2023-04-24T13:50:26;4.40;;;1.70;;
39782;SDS011;25462;51.164;17.100;2023-04-24T13:55:30;2.20;;;1.40;;
39782;SDS011;25462;51.164;17.100;2023-04-24T14:00:34;2.50;;;1.50;;
39782;SDS011;25462;51.164;17.100;2023-04-24T14:05:38;2.90;;;1.60;;
39782;SDS011;25462;51.164;17.100;2023-04-24T14:10:42;2.50;;;1.30;;
39782;SDS011;25462;51.164;17.100;2023-04-24T14:15:46;3.00;;;1.40;;
39782;SDS011;25462;51.164;17.100;2023-04-24T14:20:50;2.60;;;1.20;;
39782;SDS011;25462;51.164;17.100;2023-04-24T14:25:54;4.10;;;1.10;;
39782;SDS011;25462;51.164;17.100;2023-04-24T14:30:58;3.50;;;1.30;;
39782;SDS011;25462;51.164;17.100;2023-04-24T14:36:02;2.60;;;1.30;;
39782;SDS011;25462;51.164;17.100;2023-04-24T14:41:08;2.40;;;1.40;;
39782;SDS011;25462;51.164;17.100;2023-04-24T14:46:19;3.60;;;1.40;;
39782;SDS011;25462;51.164;17.100;2023-04-24T14:51:23;2.80;;;1.70;;
39782;SDS011;25462;51.164;17.100;2023-04-24T14:56:32;3.30;;;1.70;;
39782;SDS011;25462;51.164;17.100;2023-04-24T15:01:37;4.50;;;1.80;;
39782;SDS011;25462;51.164;17.100;2023-04-24T15:06:41;2.80;;;1.90;;
39782;SDS011;25462;51.164;17.100;2023-04-24T15:11:46;7.50;;;3.70;;
39782;SDS011;25462;51.164;17.100;2023-04-24T15:16:50;5.10;;;2.50;;
39782;SDS011;25462;51.164;17.100;2023-04-24T15:21:54;5.90;;;2.70;;
39782;SDS011;25462;51.164;17.100;2023-04-24T15:26:59;6.10;;;2.50;;
39782;SDS011;25462;51.164;17.100;2023-04-24T15:32:04;7.20;;;2.50;;
39782;SDS011;25462;51.164;17.100;2023-04-24T15:37:12;6.10;;;2.40;;
39782;SDS011;25462;51.164;17.100;2023-04-24T15:42:15;4.50;;;2.50;;
39782;SDS011;25462;51.164;17.100;2023-04-24T15:47:20;5.70;;;2.50;;
39782;SDS011;25462;51.164;17.100;2023-04-24T15:52:24;4.60;;;2.30;;
39782;SDS011;25462;51.164;17.100;2023-04-24T15:57:28;5.50;;;2.40;;
39782;SDS011;25462;51.164;17.100;2023-04-24T16:02:32;6.20;;;2.80;;
39782;SDS011;25462;51.164;17.100;2023-04-24T16:07:37;4.20;;;2.40;;
39782;SDS011;25462;51.164;17.100;2023-04-24T16:12:43;5.50;;;2.70;;
39782;SDS011;25462;51.164;17.100;2023-04-24T16:17:48;5.00;;;2.50;;
39782;SDS011;25462;51.164;17.100;2023-04-24T16:22:52;5.40;;;2.80;;
39782;SDS011;25462;51.164;17.100;2023-04-24T16:27:56;4.60;;;2.60;;
39782;SDS011;25462;51.164;17.100;2023-04-24T16:33:00;4.80;;;2.60;;
39782;SDS011;25462;51.164;17.100;2023-04-24T16:38:09;4.80;;;3.10;;
39782;SDS011;25462;51.164;17.100;2023-04-24T16:43:14;3.50;;;2.10;;
39782;SDS011;25462;51.164;17.100;2023-04-24T16:48:18;4.80;;;2.50;;
39782;SDS011;25462;51.164;17.100;2023-04-24T16:53:22;5.20;;;2.70;;
39782;SDS011;25462;51.164;17.100;2023-04-24T16:58:25;7.50;;;3.80;;
39782;SDS011;25462;51.164;17.100;2023-04-24T17:03:30;8.60;;;4.40;;
39782;SDS011;25462;51.164;17.100;2023-04-24T17:08:35;9.70;;;4.10;;
39782;SDS011;25462;51.164;17.100;2023-04-24T17:13:40;6.40;;;3.60;;
39782;SDS011;25462;51.164;17.100;2023-04-24T17:18:43;7.00;;;3.30;;
39782;SDS011;25462;51.164;17.100;2023-04-24T17:23:50;6.80;;;3.10;;
39782;SDS011;25462;51.164;17.100;2023-04-24T17:28:55;6.90;;;3.40;;
39782;SDS011;25462;51.164;17.100;2023-04-24T17:34:01;8.30;;;3.20;;
39782;SDS011;25462;51.164;17.100;2023-04-24T17:39:08;7.40;;;3.90;;
39782;SDS011;25462;51.164;17.100;2023-04-24T17:44:14;7.10;;;3.60;;
39782;SDS011;25462;51.164;17.100;2023-04-24T17:49:19;9.00;;;4.70;;
39782;SDS011;25462;51.164;17.100;2023-04-24T17:54:25;26.60;;;16.20;;
39782;SDS011;25462;51.164;17.100;2023-04-24T17:59:32;8.60;;;5.30;;
39782;SDS011;25462;51.164;17.100;2023-04-24T18:04:37;7.90;;;4.90;;
39782;SDS011;25462;51.164;17.100;2023-04-24T18:09:44;9.80;;;4.90;;
39782;SDS011;25462;51.164;17.100;2023-04-24T18:14:50;9.30;;;5.00;;
39782;SDS011;25462;51.164;17.100;2023-04-24T18:20:09;12.10;;;6.80;;
39782;SDS011;25462;51.164;17.100;2023-04-24T18:25:16;12.20;;;7.40;;
39782;SDS011;25462;51.164;17.100;2023-04-24T18:30:25;12.70;;;6.90;;
39782;SDS011;25462;51.164;17.100;2023-04-24T18:35:31;8.40;;;6.00;;
39782;SDS011;25462;51.164;17.100;2023-04-24T18:40:35;11.50;;;5.80;;
39782;SDS011;25462;51.164;17.100;2023-04-24T18:45:41;10.30;;;6.20;;
39782;SDS011;25462;51.164;17.100;2023-04-24T18:50:48;10.00;;;6.80;;
39782;SDS011;25462;51.164;17.100;2023-04-24T18:55:55;9.20;;;6.20;;
39782;SDS011;25462;51.164;17.100;2023-04-24T19:01:00;12.10;;;7.80;;
39782;SDS011;25462;51.164;17.100;2023-04-24T19:06:11;13.70;;;8.50;;
39782;SDS011;25462;51.164;17.100;2023-04-24T19:11:22;21.10;;;10.60;;
39782;SDS011;25462;51.164;17.100;2023-04-24T19:16:29;13.40;;;8.60;;
39782;SDS011;25462;51.164;17.100;2023-04-24T19:21:34;10.40;;;7.80;;
39782;SDS011;25462;51.164;17.100;2023-04-24T19:26:39;15.50;;;9.20;;
39782;SDS011;25462;51.164;17.100;2023-04-24T19:31:46;15.30;;;9.10;;
39782;SDS011;25462;51.164;17.100;2023-04-24T19:36:52;13.90;;;8.50;;
39782;SDS011;25462;51.164;17.100;2023-04-24T19:41:59;15.20;;;10.20;;
39782;SDS011;25462;51.164;17.100;2023-04-24T19:47:09;13.60;;;9.60;;
39782;SDS011;25462;51.164;17.100;2023-04-24T19:52:16;15.60;;;9.90;;
39782;SDS011;25462;51.164;17.100;2023-04-24T19:57:21;15.20;;;10.40;;
39782;SDS011;25462;51.164;17.100;2023-04-24T20:02:25;16.70;;;11.00;;
39782;SDS011;25462;51.164;17.100;2023-04-24T20:07:30;19.00;;;11.50;;
39782;SDS011;25462;51.164;17.100;2023-04-24T20:12:35;17.10;;;12.00;;
39782;SDS011;25462;51.164;17.100;2023-04-24T20:17:40;19.80;;;11.90;;
39782;SDS011;25462;51.164;17.100;2023-04-24T20:22:44;21.70;;;12.00;;
39782;SDS011;25462;51.164;17.100;2023-04-24T20:27:49;16.70;;;10.40;;
39782;SDS011;25462;51.164;17.100;2023-04-24T20:32:52;14.60;;;10.10;;
39782;SDS011;25462;51.164;17.100;2023-04-24T20:37:56;16.00;;;10.20;;
39782;SDS011;25462;51.164;17.100;2023-04-24T20:43:01;14.50;;;8.90;;
39782;SDS011;25462;51.164;17.100;2023-04-24T20:48:07;13.80;;;8.90;;
39782;SDS011;25462;51.164;17.100;2023-04-24T20:53:12;12.20;;;8.40;;
39782;SDS011;25462;51.164;17.100;2023-04-24T20:58:16;14.50;;;8.60;;
39782;SDS011;25462;51.164;17.100;2023-04-24T21:03:24;10.40;;;7.30;;
39782;SDS011;25462;51.164;17.100;2023-04-24T21:08:29;14.80;;;7.70;;
39782;SDS011;25462;51.164;17.100;2023-04-24T21:13:33;11.10;;;7.10;;
39782;SDS011;25462;51.164;17.100;2023-04-24T21:18:37;10.10;;;6.90;;
39782;SDS011;25462;51.164;17.100;2023-04-24T21:23:43;9.60;;;6.60;;
39782;SDS011;25462;51.164;17.100;2023-04-24T21:28:50;10.80;;;7.00;;
39782;SDS011;25462;51.164;17.100;2023-04-24T21:33:53;11.00;;;7.30;;
39782;SDS011;25462;51.164;17.100;2023-04-24T21:38:58;12.30;;;6.80;;
39782;SDS011;25462;51.164;17.100;2023-04-24T21:44:02;10.10;;;6.30;;
39782;SDS011;25462;51.164;17.100;2023-04-24T21:49:06;13.50;;;7.10;;
39782;SDS011;25462;51.164;17.100;2023-04-24T21:54:10;9.80;;;6.00;;
39782;SDS011;25462;51.164;17.100;2023-04-24T21:59:13;13.20;;;6.70;;
39782;SDS011;25462;51.164;17.100;2023-04-24T22:04:18;13.70;;;6.00;;
39782;SDS011;25462;51.164;17.100;2023-04-24T22:09:23;9.10;;;6.00;;
39782;SDS011;25462;51.164;17.100;2023-04-24T22:14:26;8.80;;;6.00;;
39782;SDS011;25462;51.164;17.100;2023-04-24T22:19:30;9.40;;;5.30;;
39782;SDS011;25462;51.164;17.100;2023-04-24T22:24:34;7.30;;;4.30;;
39782;SDS011;25462;51.164;17.100;2023-04-24T22:29:39;9.80;;;4.60;;
39782;SDS011;25462;51.164;17.100;2023-04-24T22:34:43;7.30;;;4.40;;
39782;SDS011;25462;51.164;17.100;2023-04-24T22:39:47;7.70;;;4.20;;
39782;SDS011;25462;51.164;17.100;2023-04-24T22:44:51;7.00;;;3.70;;
39782;SDS011;25462;51.164;17.100;2023-04-24T22:49:56;7.40;;;3.40;;
39782;SDS011;25462;51.164;17.100;2023-04-24T22:55:01;7.30;;;3.80;;
39782;SDS011;25462;51.164;17.100;2023-04-24T23:00:06;8.80;;;3.40;;
39782;SDS011;25462;51.164;17.100;2023-04-24T23:05:13;5.20;;;3.50;;
39782;SDS011;25462;51.164;17.100;2023-04-24T23:10:17;7.10;;;4.10;;
39782;SDS011;25462;51.164;17.100;2023-04-24T23:15:21;6.70;;;2.90;;
39782;SDS011;25462;51.164;17.100;2023-04-24T23:20:24;7.20;;;2.70;;
39782;SDS011;25462;51.164;17.100;2023-04-24T23:25:29;6.20;;;3.00;;
39782;SDS011;25462;51.164;17.100;2023-04-24T23:30:35;4.80;;;2.60;;
39782;SDS011;25462;51.164;17.100;2023-04-24T23:35:40;5.00;;;3.00;;
39782;SDS011;25462;51.164;17.100;2023-04-24T23:40:44;5.80;;;2.80;;
39782;SDS011;25462;51.164;17.100;2023-04-24T23:45:48;5.60;;;2.60;;
39782;SDS011;25462;51.164;17.100;2023-04-24T23:50:51;6.80;;;2.60;;
39782;SDS011;25462;51.164;17.100;2023-04-24T23:55:55;5.00;;;1.90;;
